RJNTRJAF

Guest
Details From RJNT - TOYAMA
To RJAF - MATSUMOTO
Flight Number -
Tags generated
Created
Modified
Stats Distance 47 nm / 87 km
Max Altitude 100 ft / 30 m
Waypoints 3
Social Downloads 0
Likes 0
Share VATSIM

Download

Looking for another format? Having issues loading an existing format? Contact us
Advertisement - Login to hide

Notes

Basic altitude profile: - Ascent Rate: 2500ft/min - Ascent Speed: 250kts - Cruise Altitude: 35000ft - Cruise Speed: 420kts - Descent Rate: 1500ft/min - Descent Speed: 250kts Options: - Use NATs: yes - Use PACOTS: yes - Use low airways: yes - Use high airways: yes

Route

RJNT MBE RJAF

ID Type Via Altitude Latitude Longitude Leg Dist Tot Dist Heading (true) Name
O RJNT APT - 0 ft / 0 m 36.64842˚ 137.18741˚ - 0 nm - TOYAMA
MBE VOR - 100 ft / 30 m 36.15597˚ 137.91982˚ 46 nm 46 nm 130° / 130° MATSUMOTO VOR-DME
O RJAF APT - 0 ft / 0 m 36.16676˚ 137.92267˚ 0 nm 46 nm 12° / 12° MATSUMOTO

Altitude Profile

Advertisement - Login to hide

RJNT

Details ICAO RJNT (TOY)
Name TOYAMA
Region Japan
Timezone Asia/Tokyo (UTC+9.0)
Stats Elevation 95 ft / 29 m (AMSL)
Location 36.648423° 137.187412°
Runways 1
Magnetic Variation 8.118° W

METAR

RJNT 170828Z 21003KT 2000 -SHSN FEW005 SCT007 BKN009 00/M01 Q1023 RMK 1CU005 3CU007 5CU009 A3021

Decode

TAF

TAF RJNT 170508Z 1706/1812 19004KT 4000 -SHSN FEW010 BKN020 TEMPO 1706/1709 1500 -SHSNGS FEW005 BKN008 FEW015CB BECMG 1709/1711 9999 NSW

Decode

Departure Runways

ID Width Length Bearing (true) Bearing (mag) Surface Threshold Offset Overrun Length
02 150 ft / 46 m 6,575 ft / 2,004 m 13.53° 21.65° Asphalt 0 ft / 0 m 200 ft / 61 m
20 150 ft / 46 m 6,575 ft / 2,004 m 193.53° 201.65° Asphalt 0 ft / 0 m 200 ft / 61 m

RJAF

Details ICAO RJAF (MMJ)
Name MATSUMOTO
Region Japan
Timezone Asia/Tokyo (UTC+9.0)
Stats Elevation 2,182 ft / 665 m (AMSL)
Location 36.166758° 137.922670°
Runways 1
Magnetic Variation 7.878° W

METAR

RJAF 170700Z 33008KT 9999 FEW025 SCT040 M01/M06 Q1016

Decode

TAF

Not found

Destination Runways

ID Width Length Bearing (true) Bearing (mag) Surface Threshold Offset Overrun Length
18 150 ft / 46 m 6,575 ft / 2,004 m 171.06° 178.94° Asphalt 0 ft / 0 m 190 ft / 58 m
36 150 ft / 46 m 6,575 ft / 2,004 m 351.06° 358.94° Asphalt 0 ft / 0 m 190 ft / 58 m